Time;durP1;ratioP1;P1;durP2;ratioP2;P2;SDS_P1;SDS_P2;PMS_P1;PMS_P2;Temp;Humidity;BMP_temperature;BMP_pressure;BME280_temperature;BME280_humidity;BME280_pressure;Samples;Min_cycle;Max_cycle;Signal;HPM_P1;HPM_P2
2021/06/26 00:01:17;;;;;;;16.93;15.23;;;18.40;99.90;;;;;;6127011;23;20500;-93
2021/06/26 00:03:44;;;;;;;15.27;13.77;;;18.40;99.90;;;;;;6129040;23;20436;-92
2021/06/26 00:06:11;;;;;;;17.60;16.07;;;18.40;99.90;;;;;;6127372;23;20428;-92
2021/06/26 00:08:37;;;;;;;15.77;14.37;;;18.40;99.90;;;;;;6128350;23;20954;-92
2021/06/26 00:11:06;;;;;;;18.50;16.60;;;18.40;99.90;;;;;;6127231;23;20407;-92
2021/06/26 00:13:32;;;;;;;18.30;16.60;;;18.40;99.90;;;;;;6127270;23;20416;-92
2021/06/26 00:15:59;;;;;;;22.93;17.70;;;18.40;99.90;;;;;;6127004;23;20414;-92
2021/06/26 00:18:26;;;;;;;19.07;17.17;;;18.40;99.90;;;;;;6126508;23;20745;-92
2021/06/26 00:20:53;;;;;;;17.70;16.07;;;18.40;99.90;;;;;;6127101;23;20403;-93
2021/06/26 00:23:20;;;;;;;18.13;16.43;;;18.40;99.90;;;;;;6126491;23;20760;-92
2021/06/26 00:25:47;;;;;;;15.33;13.93;;;18.40;99.90;;;;;;6139521;23;20462;-92
2021/06/26 00:28:15;;;;;;;18.00;16.23;;;18.40;99.90;;;;;;6152582;23;20414;-93
2021/06/26 00:30:42;;;;;;;15.23;13.93;;;18.30;99.90;;;;;;6129538;23;20416;-92
2021/06/26 00:33:09;;;;;;;16.60;15.03;;;18.20;99.90;;;;;;6127841;23;20507;-93
2021/06/26 00:35:36;;;;;;;16.37;14.77;;;18.40;99.90;;;;;;6127525;23;20408;-93
2021/06/26 00:38:03;;;;;;;16.07;14.40;;;18.40;99.90;;;;;;6127601;23;20527;-92
2021/06/26 00:40:29;;;;;;;16.03;14.53;;;18.40;99.90;;;;;;6126401;23;20807;-92
2021/06/26 00:42:57;;;;;;;14.83;13.50;;;18.40;99.90;;;;;;6126069;23;20442;-92
2021/06/26 00:45:25;;;;;;;16.60;15.10;;;18.40;99.90;;;;;;6129230;23;20475;-92
2021/06/26 00:47:52;;;;;;;17.00;15.30;;;18.40;99.90;;;;;;6130265;23;20419;-92
2021/06/26 00:50:21;;;;;;;16.67;15.10;;;18.40;99.90;;;;;;6127744;23;20415;-92
2021/06/26 00:52:48;;;;;;;18.27;16.37;;;18.40;99.90;;;;;;6129031;23;20427;-92
2021/06/26 00:55:16;;;;;;;17.87;16.07;;;18.40;99.90;;;;;;6127737;23;20956;-92
2021/06/26 00:57:46;;;;;;;17.70;16.00;;;18.40;99.90;;;;;;6128446;23;20523;-92
2021/06/26 01:00:14;;;;;;;16.13;14.73;;;18.40;99.90;;;;;;6128382;23;20743;-93
2021/06/26 01:02:42;;;;;;;16.60;15.00;;;18.40;99.90;;;;;;6128099;23;20449;-92
2021/06/26 01:05:11;;;;;;;17.50;15.90;;;18.40;99.90;;;;;;6128225;23;20406;-92
2021/06/26 01:07:38;;;;;;;17.00;15.43;;;18.40;99.90;;;;;;6127752;23;20439;-92
2021/06/26 01:10:05;;;;;;;17.03;15.43;;;18.30;99.90;;;;;;6129037;23;20459;-92
2021/06/26 01:12:33;;;;;;;19.67;17.77;;;18.30;99.90;;;;;;6134370;23;20423;-92
2021/06/26 01:14:59;;;;;;;18.20;16.60;;;18.30;99.90;;;;;;6145529;23;20442;-92
2021/06/26 01:17:26;;;;;;;18.37;16.60;;;18.30;99.90;;;;;;6131168;23;20446;-92
2021/06/26 01:19:54;;;;;;;19.47;15.40;;;18.30;99.90;;;;;;6139169;23;20403;-92
2021/06/26 01:22:22;;;;;;;16.13;14.63;;;18.40;99.90;;;;;;6131179;23;20524;-91
2021/06/26 01:24:51;;;;;;;16.87;15.13;;;18.40;99.90;;;;;;6153968;23;20393;-92
2021/06/26 01:27:18;;;;;;;16.43;14.83;;;18.40;99.90;;;;;;6145447;23;20457;-92
2021/06/26 01:29:49;;;;;;;16.07;14.50;;;18.30;99.90;;;;;;6145124;23;20398;-94
2021/06/26 01:32:17;;;;;;;16.00;14.60;;;18.40;99.90;;;;;;6140259;23;20462;-92
2021/06/26 01:34:43;;;;;;;15.07;13.57;;;18.40;99.90;;;;;;6142825;23;20440;-92
2021/06/26 01:37:10;;;;;;;17.13;15.53;;;18.40;99.90;;;;;;6154277;23;20434;-92
2021/06/26 01:39:37;;;;;;;17.63;15.80;;;18.30;99.90;;;;;;6153445;23;20408;-93
2021/06/26 01:42:06;;;;;;;17.17;15.67;;;18.20;99.90;;;;;;6137065;23;20436;-92
2021/06/26 01:44:33;;;;;;;16.83;15.20;;;18.20;99.90;;;;;;6128724;23;20408;-92
2021/06/26 01:47:00;;;;;;;17.80;16.10;;;18.10;99.90;;;;;;6141777;23;20426;-93
2021/06/26 01:49:27;;;;;;;17.53;16.10;;;18.10;99.90;;;;;;6147264;23;20443;-93
2021/06/26 01:51:54;;;;;;;18.50;16.70;;;18.20;99.90;;;;;;6128996;23;20406;-93
2021/06/26 01:54:21;;;;;;;19.23;17.33;;;18.10;99.90;;;;;;6128456;23;20419;-92
2021/06/26 01:56:48;;;;;;;18.77;16.77;;;18.20;99.90;;;;;;6127616;23;20404;-92
2021/06/26 01:59:16;;;;;;;17.13;15.53;;;18.20;99.90;;;;;;6127598;23;20472;-92
2021/06/26 02:01:43;;;;;;;26.43;18.07;;;18.10;99.90;;;;;;6128120;23;20894;-92
2021/06/26 02:04:09;;;;;;;20.97;17.43;;;18.10;99.90;;;;;;6148743;23;20484;-92
2021/06/26 02:06:36;;;;;;;19.23;17.33;;;18.10;99.90;;;;;;6138504;23;20482;-92
2021/06/26 02:09:04;;;;;;;18.23;16.63;;;18.10;99.90;;;;;;6139532;23;20424;-91
2021/06/26 02:11:30;;;;;;;19.60;17.70;;;18.00;99.90;;;;;;6129054;23;20490;-91
2021/06/26 02:13:59;;;;;;;21.00;18.67;;;18.10;99.90;;;;;;6128119;23;20488;-91
2021/06/26 02:16:27;;;;;;;18.43;16.63;;;18.10;99.90;;;;;;6127639;23;20418;-91
2021/06/26 02:18:54;;;;;;;19.53;17.60;;;18.10;99.90;;;;;;6135475;23;20435;-92
2021/06/26 02:21:20;;;;;;;17.73;15.83;;;18.10;99.90;;;;;;6142829;23;20413;-91
2021/06/26 02:23:47;;;;;;;24.47;18.60;;;18.10;99.90;;;;;;6149042;23;20490;-92
2021/06/26 02:26:14;;;;;;;20.63;18.53;;;18.10;99.90;;;;;;6150280;23;20424;-91
2021/06/26 02:28:41;;;;;;;17.90;16.07;;;18.10;99.90;;;;;;6145390;23;20924;-91
2021/06/26 02:31:08;;;;;;;18.40;16.60;;;18.10;99.90;;;;;;6131465;23;20414;-92
2021/06/26 02:33:36;;;;;;;19.57;17.50;;;18.10;99.90;;;;;;6130981;23;20445;-91
2021/06/26 02:36:03;;;;;;;20.00;17.00;;;18.10;99.90;;;;;;6149909;23;20408;-92
2021/06/26 02:38:30;;;;;;;19.80;17.43;;;18.10;99.90;;;;;;6146238;23;20477;-92
2021/06/26 02:40:57;;;;;;;18.37;16.37;;;18.10;99.90;;;;;;6144170;23;20455;-92
2021/06/26 02:43:23;;;;;;;18.40;16.63;;;18.10;99.90;;;;;;6130759;23;20449;-91
2021/06/26 02:45:50;;;;;;;18.37;16.67;;;18.10;99.90;;;;;;6130948;23;20489;-91
2021/06/26 02:48:17;;;;;;;18.80;16.90;;;18.10;99.90;;;;;;6130455;23;20396;-92
2021/06/26 02:50:45;;;;;;;17.63;15.87;;;18.10;99.90;;;;;;6129099;23;20415;-91
2021/06/26 02:53:12;;;;;;;17.00;15.30;;;18.10;99.90;;;;;;6129533;23;20955;-91
2021/06/26 02:55:39;;;;;;;20.33;17.60;;;18.10;99.90;;;;;;6127589;23;20511;-92
2021/06/26 02:58:06;;;;;;;17.87;16.20;;;18.10;99.90;;;;;;6127992;23;20475;-91
2021/06/26 03:00:33;;;;;;;19.73;17.77;;;18.10;99.90;;;;;;6127474;23;20417;-91
2021/06/26 03:02:59;;;;;;;18.20;16.40;;;18.10;99.90;;;;;;6128181;23;20939;-91
2021/06/26 03:05:26;;;;;;;18.47;16.70;;;18.10;99.90;;;;;;6127935;23;20412;-91
2021/06/26 03:07:56;;;;;;;16.73;15.23;;;18.10;99.90;;;;;;6127398;23;20409;-92
2021/06/26 03:10:23;;;;;;;18.97;17.07;;;18.10;99.90;;;;;;6127755;23;20487;-92
2021/06/26 03:12:50;;;;;;;18.87;17.10;;;18.00;99.90;;;;;;6127730;23;20506;-91
2021/06/26 03:15:17;;;;;;;18.70;17.00;;;18.10;99.90;;;;;;6127733;23;20415;-92
2021/06/26 03:17:44;;;;;;;19.40;17.40;;;18.00;99.90;;;;;;6127947;23;20395;-92
2021/06/26 03:20:11;;;;;;;18.10;16.20;;;18.00;99.90;;;;;;6129429;23;20429;-92
2021/06/26 03:22:38;;;;;;;21.13;19.20;;;17.80;99.90;;;;;;6139794;23;20434;-92
2021/06/26 03:25:09;;;;;;;22.60;18.57;;;17.80;99.90;;;;;;6151053;23;20432;-93
2021/06/26 03:27:36;;;;;;;18.80;16.90;;;17.80;99.90;;;;;;6151027;23;20415;-91
2021/06/26 03:30:04;;;;;;;19.60;17.50;;;17.70;99.90;;;;;;6151263;23;20422;-92
2021/06/26 03:32:31;;;;;;;18.43;16.63;;;17.70;99.90;;;;;;6146275;23;20435;-91
2021/06/26 03:34:58;;;;;;;19.60;17.87;;;17.70;99.90;;;;;;6150272;23;20480;-92
2021/06/26 03:37:24;;;;;;;19.13;17.23;;;17.70;99.90;;;;;;6153423;23;20411;-92
2021/06/26 03:39:51;;;;;;;21.70;16.97;;;17.70;99.90;;;;;;6154246;23;20461;-92
2021/06/26 03:42:20;;;;;;;18.97;17.07;;;17.60;99.90;;;;;;6152977;23;20496;-92
2021/06/26 03:44:47;;;;;;;18.63;16.67;;;17.60;99.90;;;;;;6153385;23;20418;-92
2021/06/26 03:47:14;;;;;;;22.37;16.47;;;17.60;99.90;;;;;;6147239;23;20410;-92
2021/06/26 03:49:40;;;;;;;19.83;17.93;;;17.50;99.90;;;;;;6148717;23;20479;-92
2021/06/26 03:52:08;;;;;;;18.53;16.80;;;17.50;99.90;;;;;;6149391;23;20451;-92
2021/06/26 03:54:35;;;;;;;18.87;16.97;;;17.40;99.90;;;;;;6143518;23;20424;-91
2021/06/26 03:57:03;;;;;;;18.57;16.70;;;17.50;99.90;;;;;;6132617;23;20413;-92
2021/06/26 03:59:31;;;;;;;19.80;17.80;;;17.50;99.90;;;;;;6127388;23;20446;-91
2021/06/26 04:01:58;;;;;;;18.27;16.57;;;17.50;99.90;;;;;;6126715;23;20404;-93
2021/06/26 04:04:25;;;;;;;18.87;17.07;;;17.50;99.90;;;;;;6126743;23;20392;-92
2021/06/26 04:06:51;;;;;;;19.17;17.07;;;17.50;99.90;;;;;;6127002;23;20415;-93
2021/06/26 04:09:18;;;;;;;22.73;17.47;;;17.40;99.90;;;;;;6132226;23;20498;-93
2021/06/26 04:11:45;;;;;;;20.33;18.23;;;17.40;99.90;;;;;;6151940;23;20420;-92
2021/06/26 04:14:12;;;;;;;19.97;17.93;;;17.40;99.90;;;;;;6127870;23;20498;-93
2021/06/26 04:16:40;;;;;;;21.03;18.87;;;17.40;99.90;;;;;;6133948;23;20439;-92
2021/06/26 04:19:06;;;;;;;20.07;17.30;;;17.40;99.90;;;;;;6149888;23;20579;-92
2021/06/26 04:21:33;;;;;;;19.13;17.33;;;17.50;99.90;;;;;;6154437;23;20543;-91
2021/06/26 04:24:00;;;;;;;20.13;17.97;;;17.50;99.90;;;;;;6137175;23;20431;-87
2021/06/26 04:26:27;;;;;;;20.70;18.57;;;17.50;99.90;;;;;;6129151;23;20760;-87
2021/06/26 04:28:53;;;;;;;21.07;19.00;;;17.50;99.90;;;;;;6132935;23;20404;-87
2021/06/26 04:31:20;;;;;;;20.37;18.37;;;17.50;99.90;;;;;;6150928;23;20389;-85
2021/06/26 04:33:48;;;;;;;22.13;20.00;;;17.50;99.90;;;;;;6128830;23;20443;-87
2021/06/26 04:36:15;;;;;;;21.77;19.87;;;17.50;99.90;;;;;;6127728;23;20486;-87
2021/06/26 04:38:43;;;;;;;21.33;19.23;;;17.60;99.90;;;;;;6127030;23;20446;-87
2021/06/26 04:41:10;;;;;;;22.07;19.70;;;17.60;99.90;;;;;;6126723;23;20730;-87
2021/06/26 04:43:37;;;;;;;21.67;19.67;;;17.60;99.90;;;;;;6127673;23;20737;-87
2021/06/26 04:46:07;;;;;;;20.17;18.17;;;17.60;99.90;;;;;;6127355;23;20747;-87
2021/06/26 04:51:19;;;;;;;19.20;17.60;;;17.80;99.90;;;;;;6070654;23;20420;-88
2021/06/26 04:53:46;;;;;;;22.50;19.53;;;17.90;99.90;;;;;;6069810;23;20409;-87
2021/06/26 04:56:13;;;;;;;22.13;20.23;;;17.90;99.90;;;;;;6070537;23;20416;-87
2021/06/26 04:58:40;;;;;;;21.00;19.00;;;17.90;99.90;;;;;;6072867;23;20962;-87
2021/06/26 05:01:06;;;;;;;21.80;19.53;;;17.90;99.90;;;;;;6097726;23;20895;-88
2021/06/26 05:03:33;;;;;;;21.67;19.70;;;17.80;99.90;;;;;;6097309;23;20416;-87
2021/06/26 05:06:01;;;;;;;21.50;19.40;;;17.90;99.90;;;;;;6096900;23;20393;-87
2021/06/26 05:08:29;;;;;;;22.10;20.00;;;18.00;99.90;;;;;;6098036;23;20968;-87
2021/06/26 05:10:55;;;;;;;20.17;18.13;;;18.10;99.90;;;;;;6098229;23;20939;-87
2021/06/26 05:13:22;;;;;;;21.83;18.57;;;18.20;99.90;;;;;;6096826;23;20824;-87
2021/06/26 05:15:51;;;;;;;20.80;18.70;;;18.30;99.90;;;;;;6097710;23;20415;-88
2021/06/26 05:18:18;;;;;;;19.87;17.97;;;18.40;99.90;;;;;;6098002;23;20415;-87
2021/06/26 05:20:45;;;;;;;20.07;18.37;;;18.50;99.90;;;;;;6106841;23;20439;-87
2021/06/26 05:23:16;;;;;;;21.70;19.70;;;18.50;99.90;;;;;;6110061;23;20788;-87
2021/06/26 05:25:45;;;;;;;21.20;19.40;;;19.00;99.90;;;;;;6100651;23;20404;-87
2021/06/26 05:28:12;;;;;;;21.70;19.60;;;19.40;99.90;;;;;;6114759;23;20411;-87
2021/06/26 05:30:40;;;;;;;18.53;17.03;;;20.10;99.90;;;;;;6108645;23;20432;-88
2021/06/26 05:33:06;;;;;;;18.43;16.87;;;20.90;99.90;;;;;;6097469;23;20439;-88
2021/06/26 05:35:34;;;;;;;18.97;17.37;;;21.60;99.90;;;;;;6097367;23;20901;-88
2021/06/26 05:38:01;;;;;;;17.13;15.60;;;22.30;99.90;;;;;;6097810;23;20414;-88
2021/06/26 05:40:28;;;;;;;17.63;16.03;;;22.70;99.90;;;;;;6097827;23;20459;-88
2021/06/26 05:42:56;;;;;;;19.20;17.53;;;23.00;99.90;;;;;;6119594;23;20409;-88
2021/06/26 05:45:30;;;;;;;18.20;16.70;;;23.20;99.90;;;;;;6111286;23;20431;-88
2021/06/26 05:47:57;;;;;;;19.40;17.60;;;23.40;99.90;;;;;;6104652;23;20444;-88
2021/06/26 05:50:24;;;;;;;18.50;17.00;;;23.70;99.90;;;;;;6102094;23;20428;-88
2021/06/26 05:52:52;;;;;;;18.40;16.90;;;23.60;99.90;;;;;;6110032;23;20404;-88
2021/06/26 05:55:19;;;;;;;17.97;16.37;;;23.40;99.90;;;;;;6101038;23;20400;-88
2021/06/26 05:57:47;;;;;;;17.60;16.20;;;23.50;99.90;;;;;;6098021;23;20413;-89
2021/06/26 06:00:17;;;;;;;18.10;16.50;;;23.40;99.90;;;;;;6100488;23;20463;-87
2021/06/26 06:02:44;;;;;;;19.13;17.47;;;23.40;99.90;;;;;;6124176;23;20372;-89
2021/06/26 06:05:12;;;;;;;19.17;17.40;;;23.50;99.90;;;;;;6114468;23;20411;-88
2021/06/26 06:07:39;;;;;;;18.80;17.13;;;23.20;99.90;;;;;;6099469;23;20414;-88
2021/06/26 06:10:08;;;;;;;19.07;17.47;;;23.20;99.90;;;;;;6098458;23;20436;-88
2021/06/26 06:12:36;;;;;;;19.30;17.30;;;23.50;99.90;;;;;;6099302;23;20503;-88
2021/06/26 06:15:04;;;;;;;18.10;16.67;;;23.70;99.90;;;;;;6097465;23;20434;-88
2021/06/26 06:17:32;;;;;;;17.90;16.37;;;24.30;99.90;;;;;;6098691;23;20393;-89
2021/06/26 06:19:59;;;;;;;17.73;16.20;;;24.70;99.40;;;;;;6100241;23;20460;-88
2021/06/26 06:22:26;;;;;;;16.97;15.50;;;24.80;99.00;;;;;;6105071;23;20412;-88
2021/06/26 06:24:53;;;;;;;18.87;17.27;;;24.70;98.80;;;;;;6124197;23;20405;-85
2021/06/26 06:27:19;;;;;;;19.17;17.27;;;24.40;98.60;;;;;;6124495;23;20900;-89
2021/06/26 06:29:46;;;;;;;18.93;17.33;;;24.40;99.10;;;;;;6125035;23;20412;-85
2021/06/26 06:32:13;;;;;;;18.40;16.93;;;24.80;98.90;;;;;;6124460;23;20419;-86
2021/06/26 06:34:41;;;;;;;17.27;15.87;;;26.20;97.60;;;;;;6124624;23;20400;-86
2021/06/26 06:37:08;;;;;;;17.67;16.23;;;27.30;94.60;;;;;;6119520;23;20399;-87
2021/06/26 06:39:34;;;;;;;16.37;15.07;;;27.80;92.80;;;;;;6124046;23;20438;-86
2021/06/26 06:42:01;;;;;;;16.90;15.60;;;27.40;91.60;;;;;;6123621;23;20391;-87
2021/06/26 06:44:28;;;;;;;16.73;15.43;;;27.10;92.50;;;;;;6124035;23;20412;-87
2021/06/26 06:46:54;;;;;;;17.97;16.57;;;26.90;91.20;;;;;;6123798;23;20400;-86
2021/06/26 06:49:21;;;;;;;17.70;16.10;;;26.30;91.30;;;;;;6108701;23;20441;-89
2021/06/26 06:51:49;;;;;;;17.43;16.00;;;25.80;92.50;;;;;;6098367;23;20474;-88
2021/06/26 06:54:16;;;;;;;16.73;15.43;;;25.30;93.20;;;;;;6099086;23;20419;-88
2021/06/26 06:56:43;;;;;;;17.30;15.90;;;24.80;94.10;;;;;;6097841;23;20415;-88
2021/06/26 06:59:09;;;;;;;18.17;16.67;;;24.50;95.10;;;;;;6099916;23;20455;-89
2021/06/26 07:01:36;;;;;;;17.40;15.97;;;24.50;95.40;;;;;;6101704;23;20416;-90
2021/06/26 07:04:03;;;;;;;16.50;15.07;;;25.00;95.80;;;;;;6099821;23;20864;-90
2021/06/26 07:06:30;;;;;;;18.03;16.57;;;25.50;94.10;;;;;;6112099;23;20463;-92
2021/06/26 07:08:58;;;;;;;17.10;15.60;;;25.60;93.30;;;;;;6103789;23;20952;-90
2021/06/26 07:11:26;;;;;;;17.23;15.90;;;26.50;92.40;;;;;;6102941;23;20409;-89
2021/06/26 07:13:53;;;;;;;16.23;14.87;;;27.30;90.10;;;;;;6101579;23;20410;-90
2021/06/26 07:16:20;;;;;;;15.90;14.70;;;27.40;88.80;;;;;;6100562;23;20447;-90
2021/06/26 07:18:46;;;;;;;17.10;15.50;;;27.20;88.50;;;;;;6099514;23;20415;-90
2021/06/26 07:21:13;;;;;;;18.10;15.33;;;26.60;88.60;;;;;;6099958;23;20442;-89
2021/06/26 07:23:40;;;;;;;15.83;14.53;;;27.00;88.90;;;;;;6099927;23;20400;-89
2021/06/26 07:26:08;;;;;;;15.03;13.93;;;28.00;84.30;;;;;;6099126;23;20418;-88
2021/06/26 07:28:35;;;;;;;15.40;13.90;;;28.80;81.20;;;;;;6101644;23;20412;-88
2021/06/26 07:31:02;;;;;;;17.67;16.20;;;29.90;78.70;;;;;;6103867;23;20437;-90
2021/06/26 07:33:29;;;;;;;13.87;12.80;;;30.30;75.50;;;;;;6104404;23;20408;-89
2021/06/26 07:35:55;;;;;;;15.10;14.00;;;30.80;74.70;;;;;;6103106;23;20409;-89
2021/06/26 07:38:23;;;;;;;15.83;14.53;;;31.60;71.00;;;;;;6101064;23;20405;-90
2021/06/26 07:40:50;;;;;;;14.63;13.53;;;31.90;70.50;;;;;;6101555;23;20444;-92
2021/06/26 07:43:18;;;;;;;16.90;15.60;;;32.50;68.50;;;;;;6106069;23;20409;-91
2021/06/26 07:45:45;;;;;;;14.53;13.53;;;33.00;66.10;;;;;;6101590;23;20415;-91
2021/06/26 07:48:12;;;;;;;17.20;15.90;;;33.20;64.00;;;;;;6105791;23;20416;-93
2021/06/26 07:50:39;;;;;;;16.73;15.53;;;32.00;64.80;;;;;;6117117;23;20444;-90
2021/06/26 07:53:06;;;;;;;16.40;15.10;;;31.00;66.80;;;;;;6097546;23;20408;-91
2021/06/26 07:55:34;;;;;;;17.47;16.03;;;30.20;70.70;;;;;;6097356;23;20413;-90
2021/06/26 07:58:00;;;;;;;18.03;16.73;;;30.10;70.20;;;;;;6096999;23;20421;-89
2021/06/26 08:00:28;;;;;;;15.53;14.33;;;29.50;71.80;;;;;;6100839;23;20451;-89
2021/06/26 08:02:55;;;;;;;15.90;14.70;;;30.20;71.80;;;;;;6122998;23;20468;-92
2021/06/26 08:05:22;;;;;;;14.20;13.20;;;31.20;69.00;;;;;;6100433;23;20614;-91
2021/06/26 08:07:49;;;;;;;13.50;12.50;;;31.20;66.60;;;;;;6098866;23;20392;-91
2021/06/26 08:10:16;;;;;;;13.70;12.70;;;31.80;63.90;;;;;;6107728;23;20431;-91
2021/06/26 08:12:46;;;;;;;13.13;12.10;;;32.10;62.10;;;;;;6111157;23;20416;-90
2021/06/26 08:15:14;;;;;;;14.43;13.20;;;31.20;62.70;;;;;;6098942;23;20439;-90
2021/06/26 08:17:42;;;;;;;14.93;13.73;;;29.80;66.00;;;;;;6101463;23;20476;-90
2021/06/26 08:20:10;;;;;;;13.40;12.40;;;28.80;68.40;;;;;;6101900;23;20519;-90
2021/06/26 08:22:38;;;;;;;13.40;12.40;;;29.10;69.60;;;;;;6101465;23;20416;-89
2021/06/26 08:25:05;;;;;;;13.70;12.63;;;29.20;69.90;;;;;;6099389;23;20416;-90
2021/06/26 08:27:32;;;;;;;13.80;12.73;;;29.80;70.10;;;;;;6099630;23;20926;-90
2021/06/26 08:30:55;;;;;;;12.77;11.83;;;31.40;65.80;;;;;;6102880;23;20492;-90
2021/06/26 08:33:23;;;;;;;13.70;12.60;;;32.10;61.40;;;;;;6123770;23;20428;-87
2021/06/26 08:35:50;;;;;;;12.70;11.67;;;31.90;60.70;;;;;;6099812;23;20413;-89
2021/06/26 08:38:17;;;;;;;12.90;12.00;;;32.20;61.30;;;;;;6098461;23;20423;-90
2021/06/26 08:40:44;;;;;;;12.83;11.83;;;33.00;58.80;;;;;;6096722;23;20460;-90
2021/06/26 08:43:11;;;;;;;13.40;12.50;;;32.80;58.20;;;;;;6098230;23;20415;-89
2021/06/26 08:45:38;;;;;;;12.10;11.30;;;32.70;58.40;;;;;;6097920;23;20803;-88
2021/06/26 08:48:06;;;;;;;12.50;11.40;;;32.80;58.30;;;;;;6098204;23;20931;-89
2021/06/26 08:50:34;;;;;;;11.37;10.57;;;33.70;57.10;;;;;;6100999;23;20592;-89
2021/06/26 08:53:01;;;;;;;11.03;10.23;;;33.30;56.80;;;;;;6100764;23;20734;-89
2021/06/26 08:55:27;;;;;;;12.93;11.97;;;33.60;56.00;;;;;;6097763;23;20978;-88
2021/06/26 08:57:54;;;;;;;11.40;10.53;;;33.40;55.20;;;;;;6099258;23;20764;-90
2021/06/26 09:00:24;;;;;;;12.80;11.90;;;33.40;55.10;;;;;;6098457;23;20445;-89
2021/06/26 09:02:52;;;;;;;12.53;11.47;;;32.20;55.80;;;;;;6096760;23;20396;-88
2021/06/26 09:05:27;;;;;;;11.50;10.60;;;31.70;57.80;;;;;;6098617;23;20419;-90
2021/06/26 09:07:55;;;;;;;11.07;10.17;;;32.00;58.50;;;;;;6099475;23;20404;-89
2021/06/26 09:10:25;;;;;;;10.83;10.13;;;32.40;57.40;;;;;;6098662;23;21195;-90
2021/06/26 09:12:52;;;;;;;12.20;11.20;;;34.60;54.90;;;;;;6099018;23;20951;-90
2021/06/26 09:15:24;;;;;;;10.60;9.70;;;35.90;52.00;;;;;;6098876;23;20948;-90
2021/06/26 09:17:51;;;;;;;10.10;9.50;;;37.10;49.80;;;;;;6099806;23;20408;-88
2021/06/26 09:20:18;;;;;;;11.77;11.07;;;37.70;47.50;;;;;;6114790;23;20499;-87
2021/06/26 09:22:50;;;;;;;10.20;9.50;;;37.50;46.60;;;;;;6125021;23;20396;-92
2021/06/26 09:25:30;;;;;;;10.73;9.90;;;36.80;48.00;;;;;;6113248;23;20397;-89
2021/06/26 09:27:58;;;;;;;10.20;9.60;;;37.30;46.80;;;;;;6116704;23;20400;-91
2021/06/26 09:30:37;;;;;;;9.97;9.30;;;37.80;46.20;;;;;;6120409;23;20464;-90
2021/06/26 09:33:12;;;;;;;10.90;10.00;;;37.60;45.60;;;;;;6103184;23;20896;-90
2021/06/26 09:35:39;;;;;;;11.60;10.70;;;37.30;45.70;;;;;;6113465;23;20396;-88
2021/06/26 09:38:07;;;;;;;10.60;9.80;;;35.10;46.90;;;;;;6120582;23;20424;-89
2021/06/26 09:40:37;;;;;;;10.57;9.80;;;33.70;50.00;;;;;;6105074;23;20456;-90
2021/06/26 09:43:03;;;;;;;10.57;9.63;;;33.00;53.30;;;;;;6102244;23;20419;-89
2021/06/26 09:45:30;;;;;;;10.47;9.77;;;32.60;54.20;;;;;;6106490;23;20405;-89
2021/06/26 09:48:04;;;;;;;11.33;10.53;;;33.00;53.00;;;;;;6110694;23;20413;-89
2021/06/26 09:50:31;;;;;;;11.00;10.20;;;33.40;52.30;;;;;;6105486;23;20432;-90
2021/06/26 09:53:00;;;;;;;10.33;9.53;;;33.00;52.90;;;;;;6103938;23;20409;-90
2021/06/26 09:55:29;;;;;;;9.37;8.70;;;33.70;52.30;;;;;;6104099;23;20416;-90
2021/06/26 09:57:58;;;;;;;9.70;9.00;;;34.10;50.00;;;;;;6108557;23;20409;-89
2021/06/26 10:00:26;;;;;;;9.73;8.87;;;33.40;49.20;;;;;;6104232;23;20444;-90
2021/06/26 10:02:54;;;;;;;8.73;8.13;;;33.30;51.30;;;;;;6103725;23;20474;-90
2021/06/26 10:05:21;;;;;;;9.00;8.50;;;34.80;49.30;;;;;;6102474;23;20415;-90
2021/06/26 10:07:52;;;;;;;9.53;8.83;;;35.60;46.90;;;;;;6099856;23;20412;-90
2021/06/26 10:10:21;;;;;;;10.20;9.50;;;36.10;46.30;;;;;;6106617;23;20500;-89
2021/06/26 10:12:49;;;;;;;9.37;8.77;;;35.20;46.30;;;;;;6101565;23;20427;-89
2021/06/26 10:15:18;;;;;;;9.13;8.53;;;35.20;47.70;;;;;;6103331;23;20413;-90
2021/06/26 10:17:45;;;;;;;9.60;8.90;;;36.40;46.60;;;;;;6101514;23;20408;-90
2021/06/26 10:20:14;;;;;;;10.00;9.30;;;37.20;45.10;;;;;;6106261;23;20742;-92
2021/06/26 10:22:44;;;;;;;9.40;8.80;;;36.80;45.30;;;;;;6104049;23;20411;-89
2021/06/26 10:25:12;;;;;;;10.20;9.30;;;36.80;45.10;;;;;;6104040;23;20433;-90
2021/06/26 10:27:40;;;;;;;8.80;8.20;;;38.00;44.50;;;;;;6119370;23;20396;-89
2021/06/26 10:30:15;;;;;;;9.20;8.50;;;38.80;43.10;;;;;;6121793;23;20436;-89
2021/06/26 10:32:54;;;;;;;8.80;8.20;;;39.10;41.70;;;;;;6113317;23;20380;-91
2021/06/26 10:35:22;;;;;;;9.87;9.17;;;37.10;42.70;;;;;;6103763;23;20461;-89
2021/06/26 10:38:00;;;;;;;9.27;8.63;;;34.70;46.00;;;;;;6104701;23;20419;-89
2021/06/26 10:40:39;;;;;;;12.00;11.10;;;33.50;48.10;;;;;;6100220;23;20444;-89
2021/06/26 10:43:18;;;;;;;10.40;9.70;;;31.60;50.90;;;;;;6098297;23;20384;-89
2021/06/26 10:45:45;;;;;;;9.60;9.00;;;30.90;54.30;;;;;;6098363;23;20413;-89
2021/06/26 10:48:18;;;;;;;9.23;8.53;;;30.70;54.00;;;;;;6100203;23;20412;-89
2021/06/26 10:50:47;;;;;;;8.60;8.10;;;30.00;54.90;;;;;;6112433;23;20469;-88
2021/06/26 10:53:25;;;;;;;9.67;8.90;;;30.10;55.60;;;;;;6127485;23;20895;-87
2021/06/26 10:56:09;;;;;;;9.23;8.63;;;30.40;55.80;;;;;;6127681;23;20372;-88
2021/06/26 10:58:38;;;;;;;8.67;7.97;;;31.30;54.80;;;;;;6128888;23;20387;-87
2021/06/26 11:01:17;;;;;;;9.30;8.70;;;31.20;53.00;;;;;;6127302;23;20448;-87
2021/06/26 11:03:46;;;;;;;9.17;8.50;;;30.70;54.20;;;;;;6144850;23;20488;-87
2021/06/26 11:06:30;;;;;;;7.50;6.90;;;30.40;54.70;;;;;;6149083;23;20451;-88
2021/06/26 11:08:59;;;;;;;8.60;7.90;;;31.10;53.10;;;;;;6133036;23;20415;-88
2021/06/26 11:11:30;;;;;;;7.97;7.30;;;31.30;53.40;;;;;;6146483;23;20455;-88
2021/06/26 11:14:22;;;;;;;9.80;8.90;;;32.30;52.20;;;;;;6130968;23;20411;-88
2021/06/26 11:16:50;;;;;;;9.93;9.33;;;34.30;50.00;;;;;;6106769;23;20419;-88
2021/06/26 11:19:19;;;;;;;9.53;8.80;;;36.10;47.90;;;;;;6126765;23;20404;-88
2021/06/26 11:21:49;;;;;;;9.90;9.20;;;36.20;46.40;;;;;;6127008;23;20431;-88
2021/06/26 11:24:17;;;;;;;8.10;7.53;;;35.20;47.40;;;;;;6141292;23;20438;-88
2021/06/26 11:26:46;;;;;;;9.23;8.53;;;33.80;48.80;;;;;;6152498;23;20406;-88
2021/06/26 11:29:30;;;;;;;9.47;8.77;;;33.00;50.30;;;;;;6134514;23;20403;-88
2021/06/26 11:31:58;;;;;;;8.93;8.30;;;32.40;50.90;;;;;;6129121;23;20863;-88
2021/06/26 11:34:26;;;;;;;9.60;9.00;;;31.90;51.70;;;;;;6127699;23;20438;-88
2021/06/26 11:37:02;;;;;;;9.40;8.70;;;32.50;52.10;;;;;;6127018;23;20416;-88
2021/06/26 11:39:29;;;;;;;8.83;8.13;;;34.00;49.80;;;;;;6127183;23;20427;-90
2021/06/26 11:41:57;;;;;;;9.23;8.63;;;35.10;48.20;;;;;;6131123;23;20443;-89
2021/06/26 11:44:36;;;;;;;9.10;8.40;;;36.60;46.10;;;;;;6131532;23;20416;-90
2021/06/26 11:47:04;;;;;;;8.30;7.80;;;38.20;43.20;;;;;;6128302;23;20426;-90
2021/06/26 11:49:42;;;;;;;7.83;7.30;;;37.50;42.70;;;;;;6129381;23;20415;-90
2021/06/26 11:52:11;;;;;;;7.87;7.37;;;35.70;44.50;;;;;;6128158;23;20399;-90
2021/06/26 11:54:40;;;;;;;9.37;8.67;;;34.70;46.90;;;;;;6126740;23;20395;-91
2021/06/26 11:57:12;;;;;;;8.53;7.93;;;33.60;48.70;;;;;;6127341;23;20388;-90
2021/06/26 11:59:44;;;;;;;8.50;7.90;;;34.20;49.30;;;;;;6126158;23;20435;-90
2021/06/26 12:02:12;;;;;;;8.40;7.90;;;34.60;47.30;;;;;;6126528;23;20467;-90
2021/06/26 12:04:40;;;;;;;7.27;6.87;;;34.80;45.90;;;;;;6126189;23;20447;-90
2021/06/26 12:07:09;;;;;;;8.40;7.90;;;35.90;45.40;;;;;;6126501;23;20760;-90
2021/06/26 12:09:39;;;;;;;8.43;7.70;;;37.50;43.50;;;;;;6126651;23;20420;-90
2021/06/26 12:12:07;;;;;;;6.80;6.40;;;38.30;41.90;;;;;;6126092;23;20412;-90
2021/06/26 12:14:36;;;;;;;7.33;6.83;;;38.10;40.80;;;;;;6126312;23;20415;-91
2021/06/26 12:17:10;;;;;;;7.90;7.40;;;37.60;42.00;;;;;;6126394;23;20741;-90
2021/06/26 12:19:37;;;;;;;8.40;7.90;;;36.10;43.70;;;;;;6126737;23;20435;-89
2021/06/26 12:22:08;;;;;;;7.83;7.33;;;34.90;45.10;;;;;;6127047;23;20486;-90
2021/06/26 12:24:37;;;;;;;7.17;6.77;;;33.40;46.40;;;;;;6126108;23;20420;-91
2021/06/26 12:27:12;;;;;;;6.77;6.27;;;32.80;47.50;;;;;;6126844;23;20478;-90
2021/06/26 12:29:43;;;;;;;8.00;7.40;;;32.90;48.30;;;;;;6126555;23;20535;-89
2021/06/26 12:32:10;;;;;;;7.47;6.97;;;33.80;46.30;;;;;;6127714;23;20407;-88
2021/06/26 12:34:47;;;;;;;6.87;6.37;;;34.90;44.90;;;;;;6126434;23;20408;-90
2021/06/26 12:37:15;;;;;;;6.60;6.20;;;36.70;43.80;;;;;;6128224;23;20413;-90
2021/06/26 12:39:42;;;;;;;7.80;7.07;;;37.80;40.80;;;;;;6127565;23;20439;-89